Hauptseite
METAR-TAF:

METAR-TAF

Flughäfen :

Flugplatz Locarno

Locarno, Schweiz

Breite: 46-09-55N, Länge: 8-52-40E, Höhe: 198 m

Beobachtung

Neuester Wetterbericht von vor 44 Minuten, um 04:50 UTC
Wind 2 kt aus unterschiedlichen Richtungen
Temperatur 20°C
Luftfeuchtigkeit 100%
Luftdruck 1016 hPa
Sichtweite 10 km oder mehr
Durchbrochene Bewölkung in der Höhe von 7900 ft

METAR: LSZL 100450Z AUTO VRB02KT 9999NDV BKN079 20/20 Q1016 RMK

Zeit: 07:34 (05:34 UTC)

Prognose

Neuester Wetterbericht von vor 3 Stunden und 9 Minuten, um 02:25 UTC
Gültige Prognose vom 10 um 03 UTC bis 10 um 12 UTC
Wind 5 kt aus unterschiedlichen Richtungen
Sichtweite 10 km oder mehr
keine Wolken unter 1500 m und keine Kumulonimbus oder Gewitterwolken
Zeitweise
vom 10 um 06 UTC bis 10 um 12 UTC
Sichtweite 10 km oder mehr
Durchbrochene Bewölkung in der Höhe von 7500 ft

TAF: LSZL 100225Z 1003/1012 VRB05KT CAVOK TEMPO 1006/1012 9999 BKN075

Wetterbeobachtungen und Prognosen von mehr als 4000 Flughäfen (METAR und TAF Bericht).

Die verfügbaren Stationen werden durch gelbe und rote Markierungen auf der Karte dargestellt.

Führen Sie die Maus auf sie, um den Namen der Station zu sehen.

Darauf klicken, um die Beobachtung von Wetterbeobachtungen und Prognosen zu sehen.

Um die Karte zu ändern : klicken Sie auf den grünen Tasten mit einem schwarzen Kreuz Zum Vergrößern, auf den grünen Button mit einem Gedankenstrich zu verkleinern, oder auf die grünen Pfeile für benachbarte Karten.


METAR-TAF: